Time;durP1;ratioP1;P1;durP2;ratioP2;P2;SDS_P1;SDS_P2;PMS_P1;PMS_P2;Temp;Humidity;BMP_temperature;BMP_pressure;BME280_temperature;BME280_humidity;BME280_pressure;Samples;Min_cycle;Max_cycle;Signal;HPM_P1;HPM_P2
2022/10/07 00:06:18;;;;;;;5.63;2.67;;;17.20;99.90;;;;;;7790538;74;26238;-58
2022/10/07 00:16:24;;;;;;;6.73;2.67;;;17.30;99.90;;;;;;7827582;73;26235;-59
2022/10/07 00:26:29;;;;;;;8.83;2.17;;;17.30;99.90;;;;;;7835089;74;26354;-59
2022/10/07 00:36:35;;;;;;;11.80;3.40;;;17.40;99.90;;;;;;7880116;73;26247;-59
2022/10/07 00:46:39;;;;;;;18.20;3.70;;;17.40;99.90;;;;;;7936230;73;26231;-59
2022/10/07 00:56:44;;;;;;;9.70;2.93;;;17.40;99.90;;;;;;7865230;74;26242;-56
2022/10/07 01:06:46;;;;;;;9.07;2.80;;;17.40;99.90;;;;;;7824288;74;26300;-59
2022/10/07 01:17:01;;;;;;;9.63;3.40;;;17.30;99.90;;;;;;7805478;75;26246;-58
2022/10/07 01:27:10;;;;;;;9.03;2.37;;;17.30;99.90;;;;;;7909790;73;26250;-59
2022/10/07 01:37:15;;;;;;;7.17;2.30;;;17.30;99.90;;;;;;7871896;73;27005;-59
2022/10/07 01:47:18;;;;;;;7.87;2.17;;;17.30;99.90;;;;;;7869013;74;26310;-58
2022/10/07 01:57:38;;;;;;;7.47;2.50;;;17.20;99.90;;;;;;7921450;73;26258;-58
2022/10/07 02:08:00;;;;;;;10.63;2.37;;;17.20;99.90;;;;;;7918971;73;26396;-59
2022/10/07 02:18:06;;;;;;;8.13;2.80;;;17.20;99.90;;;;;;7890830;74;26327;-58
2022/10/07 02:28:10;;;;;;;6.37;1.90;;;17.10;99.90;;;;;;7870071;74;26317;-58
2022/10/07 02:38:16;;;;;;;6.30;2.50;;;17.10;99.90;;;;;;7901543;73;26721;-57
2022/10/07 02:48:24;;;;;;;6.93;1.73;;;17.10;99.90;;;;;;7919209;73;26841;-56
2022/10/07 02:58:27;;;;;;;8.30;1.83;;;17.00;99.90;;;;;;7888711;73;26782;-60
2022/10/07 03:08:30;;;;;;;8.70;2.63;;;17.00;99.90;;;;;;7907641;73;26860;-60
2022/10/07 03:18:33;;;;;;;12.83;2.30;;;17.00;99.90;;;;;;7899548;73;26304;-58
2022/10/07 03:28:36;;;;;;;6.80;2.37;;;17.00;99.90;;;;;;7915789;73;26670;-59
2022/10/07 03:38:38;;;;;;;10.20;2.53;;;16.90;99.90;;;;;;7880660;73;26250;-58
2022/10/07 03:48:41;;;;;;;7.57;2.00;;;16.90;99.90;;;;;;7917948;74;26801;-57
2022/10/07 03:58:43;;;;;;;7.40;2.03;;;16.90;99.90;;;;;;7867510;73;26247;-56
2022/10/07 04:08:46;;;;;;;7.60;2.17;;;16.90;99.90;;;;;;7887642;73;26223;-59
2022/10/07 04:18:48;;;;;;;10.10;1.53;;;16.80;99.90;;;;;;7920333;73;27156;-58
2022/10/07 04:28:51;;;;;;;8.40;2.27;;;16.80;99.90;;;;;;7906719;73;26236;-59
2022/10/07 04:38:53;;;;;;;9.73;2.43;;;16.70;99.90;;;;;;7874983;73;26253;-58
2022/10/07 04:48:56;;;;;;;7.83;2.13;;;16.70;99.90;;;;;;7889664;73;26320;-58
2022/10/07 04:58:58;;;;;;;5.67;1.60;;;16.70;99.90;;;;;;7893402;73;26743;-58
2022/10/07 05:09:01;;;;;;;8.10;2.50;;;16.70;99.90;;;;;;7906347;73;26256;-57
2022/10/07 05:19:03;;;;;;;13.07;1.57;;;16.70;99.90;;;;;;7923948;73;26773;-56
2022/10/07 05:29:06;;;;;;;5.97;1.83;;;16.60;99.90;;;;;;7909795;73;26319;-58
2022/10/07 05:39:10;;;;;;;5.43;2.13;;;16.60;99.90;;;;;;7858669;74;26256;-58
2022/10/07 05:49:12;;;;;;;8.73;2.10;;;16.50;99.90;;;;;;7708763;75;26242;-56
2022/10/07 05:59:15;;;;;;;3.50;1.50;;;16.50;99.90;;;;;;7664364;76;26324;-57
2022/10/07 06:19:38;;;;;;;9.70;2.00;;;16.60;99.90;;;;;;7665333;76;26370;-57
2022/10/07 06:29:41;;;;;;;5.10;1.67;;;16.60;99.90;;;;;;7678173;76;26244;-59
2022/10/07 06:39:43;;;;;;;9.17;1.70;;;16.60;99.90;;;;;;7688418;76;26342;-59
2022/10/07 06:49:46;;;;;;;37.70;5.17;;;16.60;99.90;;;;;;7641895;76;26261;-59
2022/10/07 06:59:48;;;;;;;15.50;3.40;;;16.60;99.90;;;;;;7668617;76;26282;-59
2022/10/07 07:09:51;;;;;;;20.27;3.83;;;16.60;99.90;;;;;;7662736;76;27073;-56
2022/10/07 07:19:55;;;;;;;16.80;2.67;;;16.70;99.90;;;;;;7664565;76;26330;-57
2022/10/07 07:29:57;;;;;;;15.27;3.03;;;16.60;99.90;;;;;;7651673;76;26329;-57
2022/10/07 07:40:00;;;;;;;11.63;3.40;;;16.60;99.90;;;;;;7670079;76;26351;-55
2022/10/07 07:50:05;;;;;;;14.73;3.17;;;16.70;99.90;;;;;;7678564;75;26452;-55
2022/10/07 08:00:08;;;;;;;10.83;2.53;;;16.90;99.90;;;;;;7677183;76;26610;-57
2022/10/07 08:10:10;;;;;;;9.93;2.40;;;17.00;99.90;;;;;;7658342;76;26740;-57
2022/10/07 08:20:14;;;;;;;11.57;2.37;;;17.20;99.90;;;;;;7656273;76;26331;-59
2022/10/07 08:30:16;;;;;;;8.77;2.30;;;17.50;99.90;;;;;;7643036;76;26875;-59
2022/10/07 08:40:19;;;;;;;12.87;2.70;;;17.70;99.90;;;;;;7655477;76;26329;-55
2022/10/07 08:50:28;;;;;;;10.80;1.97;;;17.90;99.90;;;;;;7662084;76;26835;-59
2022/10/07 09:00:38;;;;;;;10.83;3.40;;;18.10;99.90;;;;;;7652839;76;26299;-57
2022/10/07 09:10:43;;;;;;;13.00;2.93;;;18.30;99.90;;;;;;7667726;76;26276;-55
2022/10/07 09:20:54;;;;;;;13.50;2.20;;;18.40;99.90;;;;;;7680751;76;26766;-56
2022/10/07 09:30:59;;;;;;;16.63;2.70;;;18.60;99.90;;;;;;7662119;76;26357;-56
2022/10/07 09:41:18;;;;;;;11.43;2.43;;;18.70;99.90;;;;;;7627508;76;26327;-56
2022/10/07 09:51:25;;;;;;;7.37;1.70;;;18.90;99.90;;;;;;7656084;76;26768;-56
2022/10/07 10:01:27;;;;;;;10.10;2.37;;;18.90;99.90;;;;;;7673482;76;26254;-56
2022/10/07 10:11:29;;;;;;;6.77;1.87;;;19.00;99.90;;;;;;7655569;75;26257;-57
2022/10/07 10:21:39;;;;;;;5.93;2.00;;;19.00;99.90;;;;;;7667206;76;26367;-56
2022/10/07 10:31:52;;;;;;;9.83;2.00;;;19.00;99.90;;;;;;7674406;76;26592;-54
2022/10/07 10:41:58;;;;;;;7.83;1.73;;;19.00;99.90;;;;;;7652826;76;26735;-57
2022/10/07 10:52:19;;;;;;;5.37;1.50;;;19.00;99.90;;;;;;7671481;76;26330;-57
2022/10/07 11:02:39;;;;;;;8.63;1.80;;;19.00;99.90;;;;;;7660681;76;27071;-58
2022/10/07 11:12:45;;;;;;;7.37;1.80;;;19.00;99.90;;;;;;7681745;76;26319;-59
2022/10/07 11:22:51;;;;;;;10.40;1.90;;;19.00;99.90;;;;;;7670110;76;26253;-57
2022/10/07 11:33:03;;;;;;;8.13;1.97;;;19.00;99.90;;;;;;7666860;76;26592;-55
2022/10/07 11:43:09;;;;;;;5.57;1.70;;;19.00;99.90;;;;;;7663176;76;26296;-57
2022/10/07 11:53:17;;;;;;;4.93;1.60;;;19.00;99.90;;;;;;7685019;76;26762;-56
2022/10/07 12:03:23;;;;;;;5.90;1.27;;;19.00;99.90;;;;;;7659075;76;26349;-57
2022/10/07 12:13:38;;;;;;;7.37;1.70;;;19.00;99.90;;;;;;7648285;76;26289;-55
2022/10/07 12:23:41;;;;;;;6.90;1.40;;;19.00;99.90;;;;;;7678001;76;26312;-57
2022/10/07 12:33:47;;;;;;;7.43;2.50;;;19.00;99.90;;;;;;7645826;76;26295;-56
2022/10/07 12:43:59;;;;;;;17.33;4.23;;;19.00;99.90;;;;;;7671252;76;26789;-58
2022/10/07 12:54:02;;;;;;;16.47;5.93;;;19.00;99.90;;;;;;7676964;76;26269;-59
2022/10/07 13:04:19;;;;;;;13.77;5.27;;;19.00;99.90;;;;;;7671280;75;26256;-59
2022/10/07 13:14:32;;;;;;;13.87;4.20;;;19.00;99.90;;;;;;7690316;76;26282;-56
2022/10/07 13:24:38;;;;;;;12.10;4.27;;;19.00;99.90;;;;;;7665200;76;26290;-56
2022/10/07 13:34:41;;;;;;;11.30;3.67;;;19.00;99.90;;;;;;7661273;76;26715;-56
2022/10/07 13:44:44;;;;;;;16.63;4.00;;;19.10;99.90;;;;;;7685282;76;26790;-58
2022/10/07 13:54:52;;;;;;;14.23;4.63;;;19.00;99.90;;;;;;7661387;76;26784;-57
2022/10/07 14:05:02;;;;;;;17.07;3.80;;;19.10;99.90;;;;;;7656973;76;26312;-58
2022/10/07 14:15:18;;;;;;;9.80;2.57;;;19.00;99.90;;;;;;7680007;76;26738;-57
2022/10/07 14:25:26;;;;;;;6.20;2.20;;;19.10;99.90;;;;;;7689658;76;26252;-59
2022/10/07 14:35:28;;;;;;;6.70;1.83;;;19.00;99.90;;;;;;7676482;76;26269;-56
2022/10/07 14:45:30;;;;;;;7.27;2.10;;;19.00;99.90;;;;;;7713144;76;26747;-55
2022/10/07 14:55:33;;;;;;;9.13;1.80;;;19.00;99.90;;;;;;7693708;76;26327;-57
2022/10/07 15:05:36;;;;;;;9.03;1.53;;;19.00;99.90;;;;;;7670834;76;26791;-56
2022/10/07 15:15:41;;;;;;;7.57;2.13;;;18.90;99.90;;;;;;7662667;76;26276;-57
2022/10/07 15:25:44;;;;;;;11.07;2.00;;;18.70;99.90;;;;;;7624842;76;26900;-57
2022/10/07 15:35:46;;;;;;;9.07;1.63;;;18.80;99.90;;;;;;7641707;76;26355;-57
2022/10/07 15:45:50;;;;;;;9.20;2.10;;;18.60;99.90;;;;;;7653548;76;26744;-58
2022/10/07 15:55:57;;;;;;;10.97;2.67;;;18.70;99.90;;;;;;7672090;76;26263;-55
2022/10/07 16:06:01;;;;;;;11.90;2.53;;;18.50;99.90;;;;;;7650396;76;26238;-57
2022/10/07 16:16:06;;;;;;;5.53;2.00;;;18.60;99.90;;;;;;7667277;76;26903;-55
2022/10/07 16:26:17;;;;;;;5.30;1.73;;;18.60;99.90;;;;;;7676497;76;26315;-56
2022/10/07 16:36:21;;;;;;;7.20;3.03;;;18.60;99.90;;;;;;7685743;76;26268;-56
2022/10/07 16:46:23;;;;;;;5.90;2.00;;;18.60;99.90;;;;;;7656907;76;26280;-56
2022/10/07 16:56:26;;;;;;;7.60;2.23;;;18.50;99.90;;;;;;7705089;76;26344;-56
2022/10/07 17:06:30;;;;;;;6.10;2.63;;;18.50;99.90;;;;;;7638541;76;26325;-58
2022/10/07 17:16:36;;;;;;;5.83;1.90;;;18.40;99.90;;;;;;7684903;76;26328;-55
2022/10/07 17:26:39;;;;;;;10.20;2.50;;;18.40;99.90;;;;;;7664504;76;26374;-58
2022/10/07 17:36:46;;;;;;;5.00;1.90;;;18.40;99.90;;;;;;7669212;76;26281;-57
2022/10/07 17:46:49;;;;;;;7.67;2.13;;;18.40;99.90;;;;;;7681782;76;26370;-55
2022/10/07 17:56:51;;;;;;;7.93;2.67;;;18.30;99.90;;;;;;7665225;76;26351;-56
2022/10/07 18:06:54;;;;;;;20.17;3.37;;;18.30;99.90;;;;;;7636378;76;26311;-59
2022/10/07 18:16:56;;;;;;;20.40;3.67;;;18.30;99.90;;;;;;7695231;76;26389;-54
2022/10/07 18:27:00;;;;;;;22.30;2.80;;;18.30;99.90;;;;;;7671214;76;26405;-57
2022/10/07 18:37:03;;;;;;;15.93;3.10;;;18.30;99.90;;;;;;7635856;76;26893;-57
2022/10/07 18:47:05;;;;;;;20.07;3.30;;;18.20;99.90;;;;;;7634318;76;26312;-55
2022/10/07 18:57:08;;;;;;;15.03;2.70;;;18.20;99.90;;;;;;7693660;76;26308;-58
2022/10/07 19:07:10;;;;;;;13.53;4.10;;;18.20;99.90;;;;;;7619362;76;26370;-57
2022/10/07 19:17:13;;;;;;;21.63;3.07;;;18.10;99.90;;;;;;7602217;76;26813;-58
2022/10/07 19:27:16;;;;;;;15.40;3.17;;;18.10;99.90;;;;;;7637954;76;26366;-57
2022/10/07 19:37:18;;;;;;;10.90;2.97;;;18.10;99.90;;;;;;7662648;75;27447;-58
2022/10/07 19:47:21;;;;;;;10.60;3.13;;;18.10;99.90;;;;;;7659650;76;26374;-58
2022/10/07 19:57:23;;;;;;;16.30;3.20;;;18.10;99.90;;;;;;7683024;75;26324;-57
2022/10/07 20:07:26;;;;;;;11.27;2.40;;;18.10;99.90;;;;;;7666254;75;26334;-56
2022/10/07 20:17:28;;;;;;;10.13;1.90;;;18.10;99.90;;;;;;7669997;75;26938;-56
2022/10/07 20:27:32;;;;;;;12.00;2.50;;;18.10;99.90;;;;;;7646924;75;26407;-59
2022/10/07 20:37:35;;;;;;;11.53;2.23;;;18.00;99.90;;;;;;7639167;76;26271;-56
2022/10/07 20:47:37;;;;;;;8.30;2.87;;;18.00;99.90;;;;;;7652816;74;26890;-56
2022/10/07 20:57:40;;;;;;;10.07;2.13;;;18.00;99.90;;;;;;7634022;76;26318;-58
2022/10/07 21:07:43;;;;;;;7.07;2.73;;;18.00;99.90;;;;;;7644867;76;26834;-57
2022/10/07 21:17:47;;;;;;;8.00;2.47;;;18.00;99.90;;;;;;7630575;76;26262;-56
2022/10/07 21:27:49;;;;;;;6.70;2.30;;;17.90;99.90;;;;;;7620962;76;26323;-56
2022/10/07 21:37:52;;;;;;;8.50;2.13;;;17.90;99.90;;;;;;7648645;76;26272;-58
2022/10/07 21:47:54;;;;;;;6.40;2.23;;;17.90;99.90;;;;;;7617189;76;26675;-57
2022/10/07 21:57:57;;;;;;;8.80;2.27;;;17.80;99.90;;;;;;7658827;76;26348;-57
2022/10/07 22:18:19;;;;;;;5.57;1.87;;;17.80;99.90;;;;;;7595574;76;26279;-58
2022/10/07 22:28:22;;;;;;;7.37;2.73;;;17.70;99.90;;;;;;7638039;76;26345;-58
2022/10/07 22:38:25;;;;;;;6.80;2.07;;;17.70;99.90;;;;;;7643447;76;26385;-57
2022/10/07 22:48:30;;;;;;;8.13;1.90;;;17.70;99.90;;;;;;7621189;76;26347;-58
2022/10/07 22:58:33;;;;;;;5.30;1.80;;;17.70;99.90;;;;;;7626207;76;26306;-56
2022/10/07 23:08:36;;;;;;;6.67;2.20;;;17.60;99.90;;;;;;7611868;76;26306;-57
2022/10/07 23:18:41;;;;;;;4.83;2.47;;;17.60;99.90;;;;;;7660694;76;26289;-56
2022/10/07 23:28:44;;;;;;;5.27;2.10;;;17.60;99.90;;;;;;7603127;76;26338;-58
2022/10/07 23:38:47;;;;;;;8.10;2.30;;;17.50;99.90;;;;;;7616017;76;26263;-60
2022/10/07 23:48:50;;;;;;;7.07;2.20;;;17.50;99.90;;;;;;7600811;76;26274;-56
2022/10/07 23:58:53;;;;;;;4.17;1.97;;;17.50;99.90;;;;;;7593062;76;27096;-55
